Iligan Airport


Codes: RPMI/IGN
Name: Iligan Airport
City:
Country: Philippines
Elevation: 1300 ft.
Wikipedia:

Photos at Iligan Airport


   Photos courtesy of SpottingLog. You can add your own sightings and photos by signing up for a free trial today.



No photos found.

Weather at Iligan Airport


Time (UTC)DescriptionTempratureWindCloud coverageVisibilityPressureHumidity
15-Apr-2024 15:00Light Rain24°C2 mph, SE61%10000m1013hPa90%
15-Apr-2024 18:00Broken Clouds24°C2 mph, E63%10000m1012hPa91%
15-Apr-2024 21:00Light Rain24°C2 mph, NE76%7982m1012hPa92%
16-Apr-2024 00:00Light Rain26°C2 mph, N67%10000m1013hPa83%
16-Apr-2024 03:00Scattered Clouds29°C7 mph, NW26%10000m1011hPa65%
16-Apr-2024 06:00Scattered Clouds29°C9 mph, N50%10000m1008hPa65%
16-Apr-2024 09:00Light Rain26°C4 mph, NW89%10000m1009hPa78%
16-Apr-2024 12:00Overcast Clouds25°C2 mph, NW94%10000m1011hPa84%
16-Apr-2024 15:00Overcast Clouds24°C2 mph, SE96%10000m1011hPa84%
16-Apr-2024 18:00Light Rain24°C2 mph, SE96%10000m1010hPa80%
16-Apr-2024 21:00Overcast Clouds24°C2 mph, S96%10000m1010hPa81%
17-Apr-2024 00:00Overcast Clouds26°C2 mph, N98%10000m1011hPa75%
17-Apr-2024 03:00Overcast Clouds27°C4 mph, NW100%10000m1010hPa71%
17-Apr-2024 06:00Overcast Clouds29°C7 mph, N100%10000m1008hPa64%
17-Apr-2024 09:00Light Rain26°C4 mph, NW100%10000m1009hPa81%
17-Apr-2024 12:00Light Rain25°C0 mph, NW100%10000m1010hPa88%
17-Apr-2024 15:00Light Rain24°C0 mph, SE100%10000m1010hPa89%
17-Apr-2024 18:00Overcast Clouds24°C2 mph, E100%10000m1008hPa87%
17-Apr-2024 21:00Overcast Clouds23°C2 mph, SE100%10000m1009hPa86%
18-Apr-2024 00:00Overcast Clouds26°C2 mph, N100%10000m1011hPa72%
18-Apr-2024 03:00Overcast Clouds29°C7 mph, NW96%10000m1010hPa61%
18-Apr-2024 06:00Broken Clouds30°C9 mph, N83%10000m1007hPa61%
18-Apr-2024 09:00Light Rain27°C4 mph, N59%10000m1008hPa71%
18-Apr-2024 12:00Broken Clouds24°C2 mph, SE53%10000m1010hPa80%
18-Apr-2024 15:00Scattered Clouds25°C2 mph, S38%10000m1010hPa75%
18-Apr-2024 18:00Scattered Clouds24°C2 mph, S41%10000m1009hPa76%
18-Apr-2024 21:00Scattered Clouds24°C4 mph, SE28%10000m1009hPa79%
19-Apr-2024 00:00Broken Clouds27°C2 mph, N55%10000m1011hPa63%
19-Apr-2024 03:00Overcast Clouds29°C7 mph, NW90%10000m1009hPa57%
19-Apr-2024 06:00Broken Clouds29°C9 mph, N80%10000m1007hPa64%
19-Apr-2024 09:00Light Rain27°C4 mph, NW52%10000m1008hPa68%
19-Apr-2024 12:00Broken Clouds25°C2 mph, E55%10000m1010hPa74%
19-Apr-2024 15:00Few Clouds24°C2 mph, E16%10000m1010hPa69%
19-Apr-2024 18:00Few Clouds24°C2 mph, SE21%10000m1009hPa72%
19-Apr-2024 21:00Broken Clouds23°C4 mph, SE54%10000m1010hPa76%
20-Apr-2024 00:00Broken Clouds27°C2 mph, NE68%10000m1011hPa61%
20-Apr-2024 03:00Overcast Clouds29°C7 mph, N100%10000m1010hPa58%
20-Apr-2024 06:00Overcast Clouds29°C9 mph, N100%10000m1008hPa60%
20-Apr-2024 09:00Broken Clouds27°C4 mph, N67%10000m1008hPa65%
20-Apr-2024 12:00Scattered Clouds24°C0 mph, SE44%10000m1010hPa73%